createdAt,value
2023-08-01T00:00:20.474Z,4.53
2023-08-01T00:02:47.780Z,4.53
2023-08-01T00:05:15.085Z,8.40
2023-08-01T00:07:42.420Z,5.13
2023-08-01T00:10:10.368Z,4.90
2023-08-01T00:12:37.620Z,4.63
2023-08-01T00:15:05.414Z,3.72
2023-08-01T00:17:32.685Z,4.93
2023-08-01T00:20:00.048Z,3.67
2023-08-01T00:22:27.299Z,4.30
2023-08-01T00:24:54.503Z,5.65
2023-08-01T00:27:21.857Z,5.63
2023-08-01T00:29:49.290Z,3.70
2023-08-01T00:32:16.728Z,4.40
2023-08-01T00:34:43.960Z,7.10
2023-08-01T00:37:11.183Z,5.38
2023-08-01T00:39:39.418Z,3.65
2023-08-01T00:42:06.701Z,4.95
2023-08-01T00:44:33.959Z,3.70
2023-08-01T00:47:01.223Z,4.68
2023-08-01T00:49:28.531Z,3.78
2023-08-01T00:51:55.744Z,4.00
2023-08-01T00:54:23.108Z,6.43
2023-08-01T00:56:50.481Z,4.60
2023-08-01T00:59:17.869Z,3.65
2023-08-01T01:01:45.114Z,4.28
2023-08-01T01:04:12.377Z,6.25
2023-08-01T01:06:42.928Z,6.22
2023-08-01T01:09:17.655Z,4.30
2023-08-01T01:11:45.410Z,4.38
2023-08-01T01:14:12.785Z,5.13
2023-08-01T01:16:40.643Z,5.30
2023-08-01T01:19:11.642Z,5.18
2023-08-01T01:24:28.775Z,5.45
2023-08-01T01:26:56.915Z,4.22
2023-08-01T01:29:24.942Z,3.40
2023-08-01T01:31:52.196Z,4.82
2023-08-01T01:34:19.761Z,4.97
2023-08-01T01:36:47.128Z,5.30
2023-08-01T01:39:14.347Z,4.97
2023-08-01T01:41:41.629Z,4.70
2023-08-01T01:44:08.854Z,5.15
2023-08-01T01:46:36.145Z,3.90
2023-08-01T01:49:03.723Z,4.50
2023-08-01T01:51:32.186Z,7.32
2023-08-01T01:53:59.520Z,4.07
2023-08-01T01:56:26.827Z,4.70
2023-08-01T01:58:54.176Z,6.57
2023-08-01T02:01:21.572Z,4.43
2023-08-01T02:03:49.168Z,5.18
2023-08-01T02:06:16.394Z,5.35
2023-08-01T02:08:43.646Z,5.10
2023-08-01T02:11:10.995Z,5.45
2023-08-01T02:13:38.222Z,3.80
2023-08-01T02:16:05.554Z,6.93
2023-08-01T02:18:32.797Z,7.45
2023-08-01T02:21:00.037Z,5.75
2023-08-01T02:23:27.280Z,6.80
2023-08-01T02:25:54.524Z,4.97
2023-08-01T02:28:21.936Z,5.28
2023-08-01T02:30:50.525Z,4.28
2023-08-01T02:33:17.888Z,4.97
2023-08-01T02:35:48.046Z,5.95
2023-08-01T02:38:15.286Z,5.13
2023-08-01T02:40:42.496Z,4.50
2023-08-01T02:43:09.709Z,6.40
2023-08-01T02:45:36.935Z,5.35
2023-08-01T02:48:04.428Z,6.47
2023-08-01T02:50:31.664Z,5.55
2023-08-01T02:52:58.902Z,5.00
2023-08-01T02:55:26.150Z,4.38
2023-08-01T02:57:53.395Z,5.97
2023-08-01T03:00:20.669Z,5.07
2023-08-01T03:02:48.041Z,5.90
2023-08-01T03:05:15.317Z,4.40
2023-08-01T03:07:42.530Z,5.82
2023-08-01T03:10:12.248Z,5.68
2023-08-01T03:12:41.995Z,5.75
2023-08-01T03:15:09.986Z,4.60
2023-08-01T03:17:37.322Z,4.28
2023-08-01T03:20:04.684Z,3.92
2023-08-01T03:22:32.147Z,5.32
2023-08-01T03:24:59.409Z,4.50
2023-08-01T03:27:26.610Z,6.22
2023-08-01T03:29:54.099Z,5.72
2023-08-01T03:32:21.806Z,5.00
2023-08-01T03:34:49.167Z,4.88
2023-08-01T03:37:16.425Z,4.65
2023-08-01T03:39:43.763Z,5.10
2023-08-01T03:42:11.040Z,5.20
2023-08-01T03:44:38.297Z,5.28
2023-08-01T03:47:05.723Z,4.53
2023-08-01T03:49:32.941Z,4.60
2023-08-01T03:52:00.776Z,4.63
2023-08-01T03:54:28.218Z,5.38
2023-08-01T03:56:55.424Z,6.47
2023-08-01T03:59:22.678Z,5.97
2023-08-01T04:01:49.925Z,5.95
2023-08-01T04:04:17.959Z,5.13
2023-08-01T04:06:45.199Z,5.53
2023-08-01T04:09:12.473Z,6.05
2023-08-01T04:11:39.794Z,5.18
2023-08-01T04:14:07.114Z,4.80
2023-08-01T04:16:34.396Z,7.20
2023-08-01T04:19:01.738Z,4.90
2023-08-01T04:21:28.973Z,8.13
2023-08-01T04:23:56.212Z,6.10
2023-08-01T04:26:23.466Z,6.50
2023-08-01T04:28:50.678Z,7.03
2023-08-01T04:31:17.919Z,7.28
2023-08-01T04:33:46.029Z,6.40
2023-08-01T04:36:13.298Z,6.30
2023-08-01T04:38:40.506Z,4.05
2023-08-01T04:41:07.916Z,5.07
2023-08-01T04:43:35.224Z,5.43
2023-08-01T04:46:02.524Z,7.55
2023-08-01T04:48:29.799Z,6.18
2023-08-01T04:50:57.086Z,6.40
2023-08-01T04:53:24.360Z,5.82
2023-08-01T04:55:52.127Z,5.95
2023-08-01T04:58:19.435Z,5.70
2023-08-01T05:00:46.714Z,6.57
2023-08-01T05:03:14.156Z,5.97
2023-08-01T05:05:41.513Z,7.18
2023-08-01T05:08:08.748Z,5.35
2023-08-01T05:10:36.024Z,6.25
2023-08-01T05:13:03.879Z,5.65
2023-08-01T05:15:31.971Z,7.40
2023-08-01T05:17:59.410Z,5.63
2023-08-01T05:20:31.798Z,4.30
2023-08-01T05:23:00.300Z,6.22
2023-08-01T05:25:27.746Z,8.73
2023-08-01T05:27:54.996Z,5.97
2023-08-01T05:30:22.278Z,6.07
2023-08-01T05:32:49.683Z,5.78
2023-08-01T05:35:16.956Z,3.63
2023-08-01T05:37:44.178Z,3.58
2023-08-01T05:40:11.905Z,3.35
2023-08-01T05:42:39.181Z,5.75
2023-08-01T05:45:06.716Z,4.78
2023-08-01T05:47:34.056Z,5.00
2023-08-01T05:50:01.420Z,3.85
2023-08-01T05:52:28.699Z,6.65
2023-08-01T05:54:55.909Z,8.20
2023-08-01T05:57:23.178Z,4.63
2023-08-01T05:59:50.449Z,7.40
2023-08-01T06:02:17.778Z,4.50
2023-08-01T06:04:45.089Z,5.70
2023-08-01T06:07:12.496Z,6.18
2023-08-01T06:09:39.760Z,3.92
2023-08-01T06:12:07.293Z,6.13
2023-08-01T06:14:34.554Z,5.68
2023-08-01T06:17:01.768Z,5.55
2023-08-01T06:19:29.102Z,4.38
2023-08-01T06:21:57.098Z,5.72
2023-08-01T06:24:24.331Z,5.22
2023-08-01T06:26:51.700Z,5.07
2023-08-01T06:29:18.977Z,7.57
2023-08-01T06:31:46.286Z,4.93
2023-08-01T06:34:13.597Z,4.90
2023-08-01T06:36:40.909Z,4.93
2023-08-01T06:39:08.372Z,5.25
2023-08-01T06:41:37.237Z,5.75
2023-08-01T06:44:04.530Z,5.72
2023-08-01T06:46:31.877Z,6.40
2023-08-01T06:48:59.501Z,4.85
2023-08-01T06:51:26.770Z,4.35
2023-08-01T06:53:54.033Z,4.65
2023-08-01T06:56:22.066Z,5.35
2023-08-01T06:58:49.356Z,5.85
2023-08-01T07:01:16.811Z,4.28
2023-08-01T07:03:44.236Z,5.50
2023-08-01T07:06:11.964Z,4.70
2023-08-01T07:08:39.230Z,5.15
2023-08-01T07:11:09.503Z,4.32
2023-08-01T07:13:36.831Z,4.57
2023-08-01T07:16:04.127Z,4.60
2023-08-01T07:18:31.401Z,5.75
2023-08-01T07:21:05.714Z,4.82
2023-08-01T07:23:33.811Z,4.70
2023-08-01T07:26:01.276Z,3.90
2023-08-01T07:28:28.733Z,4.95
2023-08-01T07:31:06.907Z,3.92
2023-08-01T07:33:35.102Z,5.43
2023-08-01T07:36:02.536Z,6.03
2023-08-01T07:38:29.824Z,4.85
2023-08-01T07:40:57.563Z,7.38
2023-08-01T07:43:24.945Z,5.15
2023-08-01T07:45:56.976Z,5.07
2023-08-01T07:48:24.310Z,4.60
2023-08-01T07:50:51.571Z,4.97
2023-08-01T07:53:18.840Z,5.20
2023-08-01T07:55:46.059Z,5.95
2023-08-01T07:58:13.284Z,5.47
2023-08-01T08:00:41.025Z,4.63
2023-08-01T08:03:09.636Z,4.95
2023-08-01T08:05:39.704Z,4.78
2023-08-01T08:08:07.116Z,4.50
2023-08-01T08:10:34.673Z,4.93
2023-08-01T08:13:02.588Z,6.00
2023-08-01T08:15:34.612Z,4.65
2023-08-01T08:18:05.384Z,5.00
2023-08-01T08:20:33.248Z,4.82
2023-08-01T08:23:00.658Z,4.03
2023-08-01T08:25:27.877Z,3.80
2023-08-01T08:27:55.160Z,4.55
2023-08-01T08:30:22.455Z,3.35
2023-08-01T08:32:49.746Z,4.25
2023-08-01T08:35:17.125Z,3.22
2023-08-01T08:37:44.377Z,3.05
2023-08-01T08:40:11.961Z,4.07
2023-08-01T08:42:39.374Z,6.95
2023-08-01T08:45:07.760Z,4.38
2023-08-01T08:47:38.236Z,4.40
2023-08-01T08:50:06.636Z,2.83
2023-08-01T08:52:34.173Z,4.00
2023-08-01T08:55:02.090Z,4.60
2023-08-01T08:57:29.564Z,5.65
2023-08-01T08:59:57.880Z,4.50
2023-08-01T09:02:25.599Z,4.93
2023-08-01T09:04:52.861Z,3.10
2023-08-01T09:07:21.846Z,2.97
2023-08-01T09:09:49.151Z,4.47
2023-08-01T09:12:16.385Z,4.10
2023-08-01T09:14:44.282Z,4.18
2023-08-01T09:17:11.686Z,8.13
2023-08-01T09:19:39.021Z,5.53
2023-08-01T09:22:12.113Z,4.65
2023-08-01T09:24:39.605Z,4.60
2023-08-01T09:27:07.339Z,3.40
2023-08-01T09:29:34.629Z,3.72
2023-08-01T09:32:01.856Z,4.22
2023-08-01T09:34:29.369Z,4.60
2023-08-01T09:37:03.278Z,3.58
2023-08-01T09:39:30.494Z,4.53
2023-08-01T09:41:58.514Z,3.92
2023-08-01T09:44:27.386Z,5.15
2023-08-01T09:47:01.315Z,3.92
2023-08-01T09:49:29.610Z,3.70
2023-08-01T09:51:56.879Z,6.45
2023-08-01T09:54:24.212Z,4.45
2023-08-01T09:56:52.592Z,3.95
2023-08-01T09:59:23.727Z,7.28
2023-08-01T10:01:51.975Z,4.07
2023-08-01T10:04:41.291Z,4.32
2023-08-01T10:07:10.381Z,3.13
2023-08-01T10:09:37.916Z,5.68
2023-08-01T10:12:06.698Z,4.07
2023-08-01T10:14:34.723Z,3.22
2023-08-01T10:17:03.778Z,3.80
2023-08-01T10:19:32.944Z,4.03
2023-08-01T10:22:00.380Z,4.47
2023-08-01T10:24:27.767Z,3.10
2023-08-01T10:26:55.087Z,4.80
2023-08-01T10:29:22.320Z,2.83
2023-08-01T10:31:56.587Z,2.60
2023-08-01T10:34:23.923Z,3.97
2023-08-01T10:37:00.391Z,3.92
2023-08-01T10:39:28.358Z,2.67
2023-08-01T10:42:02.373Z,2.50
2023-08-01T10:44:31.712Z,2.45
2023-08-01T10:47:00.982Z,2.75
2023-08-01T10:49:38.465Z,3.22
2023-08-01T10:52:07.449Z,2.25
2023-08-01T10:54:38.686Z,3.88
2023-08-01T10:57:07.757Z,5.38
2023-08-01T10:59:36.106Z,3.03
2023-08-01T11:02:03.439Z,2.03
2023-08-01T11:04:30.677Z,3.22
2023-08-01T11:06:57.968Z,3.30
2023-08-01T11:09:26.207Z,1.75
2023-08-01T11:11:54.660Z,1.40
2023-08-01T11:14:25.928Z,4.35
2023-08-01T11:16:53.248Z,3.20
2023-08-01T11:19:21.398Z,1.60
2023-08-01T11:21:48.779Z,2.55
2023-08-01T11:24:16.622Z,1.70
2023-08-01T11:26:45.237Z,1.98
2023-08-01T11:29:13.351Z,2.95
2023-08-01T11:31:42.287Z,1.58
2023-08-01T11:34:11.382Z,2.35
2023-08-01T11:36:39.953Z,1.35
2023-08-01T11:39:08.018Z,0.82
2023-08-01T11:41:35.454Z,1.52
2023-08-01T11:44:06.139Z,1.33
2023-08-01T11:46:37.240Z,0.75
2023-08-01T11:49:04.798Z,0.90
2023-08-01T11:51:32.313Z,0.65
2023-08-01T11:54:00.407Z,0.98
2023-08-01T11:56:27.720Z,0.80
2023-08-01T11:58:55.051Z,0.95
2023-08-01T12:01:22.452Z,0.68
2023-08-01T12:03:53.474Z,0.60
2023-08-01T12:06:22.993Z,1.30
2023-08-01T12:08:51.284Z,0.60
2023-08-01T12:11:27.283Z,1.13
2023-08-01T12:14:11.191Z,1.83
2023-08-01T12:16:42.393Z,1.58
2023-08-01T12:19:10.803Z,1.20
2023-08-01T12:21:38.567Z,1.42
2023-08-01T12:24:05.962Z,0.80
2023-08-01T12:26:33.231Z,1.00
2023-08-01T12:29:00.527Z,1.50
2023-08-01T12:31:28.022Z,0.85
2023-08-01T12:33:55.288Z,0.65
2023-08-01T12:36:22.931Z,1.38
2023-08-01T12:38:50.236Z,2.15
2023-08-01T12:41:17.606Z,0.70
2023-08-01T12:43:45.057Z,0.80
2023-08-01T12:46:12.348Z,0.90
2023-08-01T12:48:40.026Z,1.65
2023-08-01T12:51:07.237Z,1.20
2023-08-01T12:53:34.487Z,1.95
2023-08-01T12:56:01.786Z,1.23
2023-08-01T12:58:29.042Z,1.00
2023-08-01T13:00:57.505Z,1.55
2023-08-01T13:03:24.804Z,1.10
2023-08-01T13:05:54.018Z,1.20
2023-08-01T13:08:21.260Z,1.48
2023-08-01T13:10:50.825Z,1.15
2023-08-01T13:13:18.750Z,0.90
2023-08-01T13:15:46.072Z,1.00
2023-08-01T13:18:13.463Z,1.10
2023-08-01T13:20:40.678Z,1.58
2023-08-01T13:23:08.341Z,1.42
2023-08-01T13:25:35.566Z,2.72
2023-08-01T13:28:02.972Z,1.50
2023-08-01T13:30:30.239Z,1.77
2023-08-01T13:32:57.548Z,1.50
2023-08-01T13:35:24.824Z,1.65
2023-08-01T13:37:52.051Z,1.10
2023-08-01T13:40:19.385Z,2.00
2023-08-01T13:42:46.689Z,1.20
2023-08-01T13:45:13.965Z,1.02
2023-08-01T13:47:41.415Z,1.77
2023-08-01T13:50:09.999Z,1.10
2023-08-01T13:52:40.425Z,1.05
2023-08-01T13:55:08.657Z,1.02
2023-08-01T13:57:35.928Z,1.00
2023-08-01T14:00:12.161Z,1.70
2023-08-01T14:02:40.630Z,1.38
2023-08-01T14:05:08.262Z,0.98
2023-08-01T14:07:41.477Z,1.05
2023-08-01T14:10:11.485Z,1.02
2023-08-01T14:12:38.773Z,1.25
2023-08-01T14:15:06.480Z,1.67
2023-08-01T14:17:33.909Z,1.80
2023-08-01T14:20:01.221Z,0.90
2023-08-01T14:22:28.485Z,1.30
2023-08-01T14:24:55.817Z,1.85
2023-08-01T14:27:23.547Z,1.42
2023-08-01T14:29:50.858Z,1.00
2023-08-01T14:32:19.926Z,2.20
2023-08-01T14:34:47.254Z,2.05
2023-08-01T14:37:14.503Z,1.67
2023-08-01T14:39:41.754Z,1.23
2023-08-01T14:42:09.060Z,1.10
2023-08-01T14:44:36.322Z,1.17
2023-08-01T14:47:03.804Z,1.02
2023-08-01T14:49:31.222Z,0.95
2023-08-01T14:51:58.708Z,1.10
2023-08-01T14:54:39.085Z,1.80
2023-08-01T14:57:08.082Z,1.33
2023-08-01T14:59:35.830Z,1.10
2023-08-01T15:02:03.523Z,1.92
2023-08-01T15:04:30.885Z,0.90
2023-08-01T15:06:58.349Z,1.05
2023-08-01T15:09:25.738Z,1.98
2023-08-01T15:11:53.001Z,1.00
2023-08-01T15:14:20.368Z,1.52
2023-08-01T15:16:47.613Z,1.85
2023-08-01T15:19:14.852Z,1.10
2023-08-01T15:21:42.440Z,1.05
2023-08-01T15:24:10.741Z,1.00
2023-08-01T15:26:37.982Z,0.98
2023-08-01T15:29:05.200Z,3.20
2023-08-01T15:31:32.502Z,1.63
2023-08-01T15:33:59.739Z,0.80
2023-08-01T15:36:27.970Z,1.13
2023-08-01T15:38:55.293Z,0.82
2023-08-01T15:41:22.991Z,1.25
2023-08-01T15:43:50.230Z,1.00
2023-08-01T15:46:17.757Z,1.10
2023-08-01T15:48:45.442Z,3.88
2023-08-01T15:51:13.920Z,0.90
2023-08-01T15:53:41.367Z,1.30
2023-08-01T15:56:09.675Z,1.10
2023-08-01T15:58:36.999Z,5.13
2023-08-01T16:01:04.423Z,1.00
2023-08-01T16:03:31.839Z,1.73
2023-08-01T16:05:59.278Z,1.08
2023-08-01T16:08:28.401Z,5.15
2023-08-01T16:10:57.142Z,1.33
2023-08-01T16:13:24.436Z,1.20
2023-08-01T16:15:51.768Z,2.22
2023-08-01T16:18:19.270Z,1.05
2023-08-01T16:20:47.347Z,3.25
2023-08-01T16:23:14.795Z,1.00
2023-08-01T16:25:42.350Z,0.85
2023-08-01T16:28:09.762Z,1.20
2023-08-01T16:30:38.083Z,1.20
2023-08-01T16:33:05.566Z,1.00
2023-08-01T16:35:35.755Z,1.10
2023-08-01T16:38:03.115Z,1.00
2023-08-01T16:40:30.685Z,0.90
2023-08-01T16:42:59.392Z,1.08
2023-08-01T16:45:26.652Z,1.05
2023-08-01T16:47:54.019Z,0.90
2023-08-01T16:50:22.159Z,0.90
2023-08-01T16:52:49.919Z,1.17
2023-08-01T16:55:17.875Z,1.10
2023-08-01T16:57:45.400Z,1.42
2023-08-01T17:00:13.511Z,1.05
2023-08-01T17:02:40.860Z,1.00
2023-08-01T17:05:08.649Z,1.40
2023-08-01T17:07:36.099Z,1.33
2023-08-01T17:10:05.850Z,1.27
2023-08-01T17:12:33.829Z,2.08
2023-08-01T17:15:01.477Z,1.25
2023-08-01T17:17:29.310Z,1.27
2023-08-01T17:19:57.298Z,1.48
2023-08-01T17:22:25.345Z,1.27
2023-08-01T17:24:52.891Z,1.00
2023-08-01T17:27:20.160Z,1.13
2023-08-01T17:29:48.262Z,1.10
2023-08-01T17:32:15.652Z,1.08
2023-08-01T17:34:42.887Z,1.70
2023-08-01T17:37:10.111Z,1.10
2023-08-01T17:39:37.324Z,1.40
2023-08-01T17:42:04.658Z,1.33
2023-08-01T17:44:34.654Z,1.33
2023-08-01T17:47:08.434Z,1.65
2023-08-01T17:49:35.834Z,1.48
2023-08-01T17:52:03.124Z,1.88
2023-08-01T17:54:30.673Z,1.20
2023-08-01T17:56:58.009Z,1.52
2023-08-01T17:59:25.439Z,2.67
2023-08-01T18:01:54.424Z,1.60
2023-08-01T18:04:22.520Z,1.63
2023-08-01T18:06:50.295Z,1.45
2023-08-01T18:09:20.223Z,2.03
2023-08-01T18:11:47.804Z,1.10
2023-08-01T18:14:15.261Z,1.52
2023-08-01T18:16:43.104Z,1.73
2023-08-01T18:19:10.718Z,1.30
2023-08-01T18:21:38.150Z,2.42
2023-08-01T18:24:07.487Z,1.35
2023-08-01T18:26:40.232Z,1.70
2023-08-01T18:29:08.211Z,1.45
2023-08-01T18:31:35.741Z,1.40
2023-08-01T18:34:03.201Z,1.35
2023-08-01T18:36:31.222Z,1.92
2023-08-01T18:39:00.768Z,1.30
2023-08-01T18:41:28.193Z,3.22
2023-08-01T18:43:55.464Z,1.48
2023-08-01T18:46:24.494Z,2.28
2023-08-01T18:48:53.036Z,1.75
2023-08-01T18:51:21.462Z,3.10
2023-08-01T18:53:49.004Z,1.30
2023-08-01T18:56:17.921Z,1.52
2023-08-01T18:58:45.355Z,1.35
2023-08-01T19:01:17.543Z,1.23
2023-08-01T19:03:47.176Z,2.13
2023-08-01T19:06:17.052Z,1.63
2023-08-01T19:08:47.707Z,1.40
2023-08-01T19:11:15.223Z,1.98
2023-08-01T19:13:43.195Z,1.20
2023-08-01T19:16:10.892Z,2.17
2023-08-01T19:18:38.220Z,2.78
2023-08-01T19:21:05.818Z,2.33
2023-08-01T19:23:33.394Z,2.58
2023-08-01T19:26:09.134Z,4.05
2023-08-01T19:28:36.702Z,1.60
2023-08-01T19:31:04.510Z,3.47
2023-08-01T19:33:32.301Z,1.73
2023-08-01T19:36:00.118Z,1.50
2023-08-01T19:38:27.393Z,2.08
2023-08-01T19:40:55.539Z,1.55
2023-08-01T19:43:22.883Z,2.05
2023-08-01T19:45:50.167Z,1.60
2023-08-01T19:48:17.441Z,2.80
2023-08-01T19:50:44.713Z,1.63
2023-08-01T19:53:11.989Z,1.80
2023-08-01T19:55:39.274Z,2.15
2023-08-01T19:58:06.564Z,3.00
2023-08-01T20:00:33.870Z,1.80
2023-08-01T20:03:01.388Z,1.98
2023-08-01T20:05:28.771Z,3.30
2023-08-01T20:07:56.014Z,1.90
2023-08-01T20:10:23.376Z,2.13
2023-08-01T20:12:50.625Z,3.25
2023-08-01T20:15:18.071Z,1.75
2023-08-01T20:17:47.342Z,4.60
2023-08-01T20:20:14.709Z,1.63
2023-08-01T20:22:42.027Z,2.75
2023-08-01T20:25:09.788Z,1.70
2023-08-01T20:27:37.105Z,2.55
2023-08-01T20:30:04.734Z,2.38
2023-08-01T20:32:32.076Z,3.10
2023-08-01T20:34:59.557Z,2.10
2023-08-01T20:37:26.986Z,3.63
2023-08-01T20:39:54.241Z,2.38
2023-08-01T20:42:21.785Z,1.88
2023-08-01T20:44:49.056Z,4.70
2023-08-01T20:47:16.288Z,5.65
2023-08-01T20:49:43.518Z,1.85
2023-08-01T20:52:10.794Z,4.38
2023-08-01T20:54:38.042Z,3.67
2023-08-01T20:57:05.545Z,3.00
2023-08-01T20:59:33.010Z,4.25
2023-08-01T21:02:01.793Z,2.53
2023-08-01T21:04:29.594Z,2.05
2023-08-01T21:06:57.930Z,2.10
2023-08-01T21:09:25.240Z,2.53
2023-08-01T21:11:52.489Z,5.30
2023-08-01T21:14:19.774Z,2.28
2023-08-01T21:16:47.047Z,2.30
2023-08-01T21:19:14.328Z,2.40
2023-08-01T21:21:41.577Z,2.40
2023-08-01T21:24:10.002Z,3.60
2023-08-01T21:26:37.818Z,1.80
2023-08-01T21:29:05.305Z,2.33
2023-08-01T21:31:32.652Z,2.33
2023-08-01T21:33:59.986Z,2.10
2023-08-01T21:36:27.316Z,2.28
2023-08-01T21:38:54.553Z,1.60
2023-08-01T21:41:21.855Z,2.05
2023-08-01T21:43:49.076Z,2.22
2023-08-01T21:46:16.416Z,2.08
2023-08-01T21:48:43.907Z,2.38
2023-08-01T21:51:11.159Z,3.22
2023-08-01T21:53:38.464Z,3.78
2023-08-01T21:56:05.747Z,1.90
2023-08-01T21:58:33.011Z,4.30
2023-08-01T22:01:00.312Z,3.08
2023-08-01T22:03:27.712Z,3.63
2023-08-01T22:05:58.707Z,2.05
2023-08-01T22:08:26.791Z,1.98
2023-08-01T22:10:55.064Z,4.63
2023-08-01T22:13:22.708Z,3.20
2023-08-01T22:15:50.001Z,1.70
2023-08-01T22:18:26.459Z,2.05
2023-08-01T22:20:53.838Z,2.42
2023-08-01T22:23:21.670Z,2.70
2023-08-01T22:25:48.981Z,2.63
2023-08-01T22:28:19.885Z,1.60
2023-08-01T22:30:47.912Z,3.30
2023-08-01T22:33:15.275Z,3.80
2023-08-01T22:35:42.936Z,3.22
2023-08-01T22:38:10.397Z,1.92
2023-08-01T22:40:37.669Z,2.85
2023-08-01T22:43:05.488Z,3.08
2023-08-01T22:45:33.432Z,2.28
2023-08-01T22:48:01.175Z,2.15
2023-08-01T22:50:31.495Z,2.40
2023-08-01T22:52:58.829Z,3.47
2023-08-01T22:55:26.161Z,2.30
2023-08-01T22:57:53.417Z,3.47
2023-08-01T23:00:21.040Z,2.28
2023-08-01T23:02:48.394Z,4.38
2023-08-01T23:05:15.761Z,1.85
2023-08-01T23:07:43.052Z,2.47
2023-08-01T23:10:10.501Z,2.00
2023-08-01T23:12:37.786Z,1.95
2023-08-01T23:15:05.272Z,1.80
2023-08-01T23:17:33.077Z,2.58
2023-08-01T23:20:00.985Z,3.22
2023-08-01T23:22:28.426Z,2.53
2023-08-01T23:24:55.739Z,3.15
2023-08-01T23:27:23.008Z,2.83
2023-08-01T23:29:53.331Z,3.22
2023-08-01T23:32:20.968Z,2.67
2023-08-01T23:34:48.196Z,3.00
2023-08-01T23:37:15.493Z,1.83
2023-08-01T23:39:42.753Z,5.30
2023-08-01T23:42:09.998Z,2.10
2023-08-01T23:44:37.464Z,2.78
2023-08-01T23:47:04.802Z,2.72
2023-08-01T23:49:33.828Z,3.33
2023-08-01T23:52:01.346Z,3.10
2023-08-01T23:54:28.593Z,2.05
2023-08-01T23:56:55.846Z,3.75
2023-08-01T23:59:23.227Z,2.20
